sensor_id;sensor_type;location;lat;lon;timestamp;P1;durP1;ratioP1;P2;durP2;ratioP2
49051;SDS011;34866;48.670;18.260;2022-08-01T00:03:55;6.05;;;3.10;;
49051;SDS011;34866;48.670;18.260;2022-08-01T00:14:00;8.55;;;2.72;;
49051;SDS011;34866;48.670;18.260;2022-08-01T00:17:35;8.50;;;2.95;;
49051;SDS011;34866;48.670;18.260;2022-08-01T00:21:08;6.50;;;3.05;;
49051;SDS011;34866;48.670;18.260;2022-08-01T00:28:29;8.18;;;3.65;;
49051;SDS011;34866;48.670;18.260;2022-08-01T00:36:10;8.40;;;4.18;;
49051;SDS011;34866;48.670;18.260;2022-08-01T00:42:39;5.60;;;3.42;;
49051;SDS011;34866;48.670;18.260;2022-08-01T00:49:44;8.77;;;3.58;;
49051;SDS011;34866;48.670;18.260;2022-08-01T00:52:48;9.48;;;3.33;;
49051;SDS011;34866;48.670;18.260;2022-08-01T00:56:14;7.95;;;3.50;;
49051;SDS011;34866;48.670;18.260;2022-08-01T01:03:15;8.35;;;2.58;;
49051;SDS011;34866;48.670;18.260;2022-08-01T01:20:02;4.93;;;2.70;;
49051;SDS011;34866;48.670;18.260;2022-08-01T01:33:02;15.05;;;3.92;;
49051;SDS011;34866;48.670;18.260;2022-08-01T01:38:51;19.02;;;4.28;;
49051;SDS011;34866;48.670;18.260;2022-08-01T01:41:40;26.67;;;4.50;;
49051;SDS011;34866;48.670;18.260;2022-08-01T01:47:31;33.08;;;5.60;;
49051;SDS011;34866;48.670;18.260;2022-08-01T01:50:09;37.17;;;4.75;;
49051;SDS011;34866;48.670;18.260;2022-08-01T01:53:17;34.40;;;5.47;;
49051;SDS011;34866;48.670;18.260;2022-08-01T01:57:08;20.65;;;4.20;;
49051;SDS011;34866;48.670;18.260;2022-08-01T02:04:10;8.27;;;4.28;;
49051;SDS011;34866;48.670;18.260;2022-08-01T02:14:34;13.25;;;3.55;;
49051;SDS011;34866;48.670;18.260;2022-08-01T02:21:44;8.90;;;3.50;;
49051;SDS011;34866;48.670;18.260;2022-08-01T02:43:24;16.10;;;2.97;;
49051;SDS011;34866;48.670;18.260;2022-08-01T02:47:00;13.55;;;3.47;;
49051;SDS011;34866;48.670;18.260;2022-08-01T02:53:57;28.38;;;3.65;;
49051;SDS011;34866;48.670;18.260;2022-08-01T02:57:40;10.15;;;3.47;;
49051;SDS011;34866;48.670;18.260;2022-08-01T03:42:17;34.17;;;3.80;;
49051;SDS011;34866;48.670;18.260;2022-08-01T03:45:37;4.63;;;3.00;;
49051;SDS011;34866;48.670;18.260;2022-08-01T03:49:23;6.10;;;3.60;;
49051;SDS011;34866;48.670;18.260;2022-08-01T03:56:07;11.43;;;3.40;;
49051;SDS011;34866;48.670;18.260;2022-08-01T03:59:45;8.45;;;3.40;;
49051;SDS011;34866;48.670;18.260;2022-08-01T04:51:02;5.28;;;3.00;;
49051;SDS011;34866;48.670;18.260;2022-08-01T04:54:14;5.97;;;3.47;;
49051;SDS011;34866;48.670;18.260;2022-08-01T04:57:43;5.93;;;3.42;;
49051;SDS011;34866;48.670;18.260;2022-08-01T05:04:07;8.68;;;3.15;;
49051;SDS011;34866;48.670;18.260;2022-08-01T05:06:39;4.72;;;3.00;;
49051;SDS011;34866;48.670;18.260;2022-08-01T05:09:45;5.13;;;3.10;;
49051;SDS011;34866;48.670;18.260;2022-08-01T05:12:38;5.03;;;3.22;;
49051;SDS011;34866;48.670;18.260;2022-08-01T05:26:09;5.82;;;3.20;;
49051;SDS011;34866;48.670;18.260;2022-08-01T05:29:46;6.75;;;3.50;;
49051;SDS011;34866;48.670;18.260;2022-08-01T05:32:41;4.53;;;2.67;;
49051;SDS011;34866;48.670;18.260;2022-08-01T05:38:17;4.15;;;2.40;;
49051;SDS011;34866;48.670;18.260;2022-08-01T05:40:43;7.35;;;2.35;;
49051;SDS011;34866;48.670;18.260;2022-08-01T05:43:11;8.20;;;2.88;;
49051;SDS011;34866;48.670;18.260;2022-08-01T05:45:39;4.30;;;2.75;;
49051;SDS011;34866;48.670;18.260;2022-08-01T05:48:29;4.30;;;2.38;;
49051;SDS011;34866;48.670;18.260;2022-08-01T05:50:56;4.47;;;2.35;;
49051;SDS011;34866;48.670;18.260;2022-08-01T05:53:55;3.97;;;2.20;;
49051;SDS011;34866;48.670;18.260;2022-08-01T05:56:42;6.80;;;2.50;;
49051;SDS011;34866;48.670;18.260;2022-08-01T06:05:37;4.03;;;2.20;;
49051;SDS011;34866;48.670;18.260;2022-08-01T06:08:50;4.13;;;2.47;;
49051;SDS011;34866;48.670;18.260;2022-08-01T06:14:32;6.05;;;3.03;;
49051;SDS011;34866;48.670;18.260;2022-08-01T06:17:08;4.72;;;2.72;;
49051;SDS011;34866;48.670;18.260;2022-08-01T06:20:14;4.93;;;2.83;;
49051;SDS011;34866;48.670;18.260;2022-08-01T06:23:08;9.20;;;3.30;;
49051;SDS011;34866;48.670;18.260;2022-08-01T06:25:35;6.85;;;3.10;;
49051;SDS011;34866;48.670;18.260;2022-08-01T06:28:24;5.22;;;2.63;;
49051;SDS011;34866;48.670;18.260;2022-08-01T06:31:08;6.13;;;3.42;;
49051;SDS011;34866;48.670;18.260;2022-08-01T06:33:55;5.65;;;3.38;;
49051;SDS011;34866;48.670;18.260;2022-08-01T06:36:25;5.65;;;3.33;;
49051;SDS011;34866;48.670;18.260;2022-08-01T06:39:33;6.22;;;3.53;;
49051;SDS011;34866;48.670;18.260;2022-08-01T06:42:11;6.25;;;3.28;;
49051;SDS011;34866;48.670;18.260;2022-08-01T06:45:05;5.90;;;3.50;;
49051;SDS011;34866;48.670;18.260;2022-08-01T06:47:42;6.15;;;3.47;;
49051;SDS011;34866;48.670;18.260;2022-08-01T06:50:27;8.45;;;3.40;;
49051;SDS011;34866;48.670;18.260;2022-08-01T06:53:06;5.65;;;3.35;;
49051;SDS011;34866;48.670;18.260;2022-08-01T06:55:35;4.93;;;3.38;;
49051;SDS011;34866;48.670;18.260;2022-08-01T06:58:09;8.13;;;3.72;;
49051;SDS011;34866;48.670;18.260;2022-08-01T07:01:27;7.75;;;3.28;;
49051;SDS011;34866;48.670;18.260;2022-08-01T07:03:55;4.53;;;2.95;;
49051;SDS011;34866;48.670;18.260;2022-08-01T07:07:21;4.28;;;2.53;;
49051;SDS011;34866;48.670;18.260;2022-08-01T07:09:48;5.22;;;2.88;;
49051;SDS011;34866;48.670;18.260;2022-08-01T07:12:36;5.00;;;2.88;;
49051;SDS011;34866;48.670;18.260;2022-08-01T07:15:09;6.07;;;3.10;;
49051;SDS011;34866;48.670;18.260;2022-08-01T07:18:10;6.70;;;2.92;;
49051;SDS011;34866;48.670;18.260;2022-08-01T07:21:12;5.10;;;3.08;;
49051;SDS011;34866;48.670;18.260;2022-08-01T07:23:58;7.70;;;3.30;;
49051;SDS011;34866;48.670;18.260;2022-08-01T07:26:30;6.53;;;3.60;;
49051;SDS011;34866;48.670;18.260;2022-08-01T07:32:07;6.65;;;3.78;;
49051;SDS011;34866;48.670;18.260;2022-08-01T07:40:55;5.88;;;3.08;;
49051;SDS011;34866;48.670;18.260;2022-08-01T07:43:27;5.95;;;3.13;;
49051;SDS011;34866;48.670;18.260;2022-08-01T07:45:55;5.07;;;2.88;;
49051;SDS011;34866;48.670;18.260;2022-08-01T07:51:49;5.18;;;2.75;;
49051;SDS011;34866;48.670;18.260;2022-08-01T07:55:10;5.03;;;3.00;;
49051;SDS011;34866;48.670;18.260;2022-08-01T07:57:42;5.57;;;2.78;;
49051;SDS011;34866;48.670;18.260;2022-08-01T08:00:16;5.70;;;2.63;;
49051;SDS011;34866;48.670;18.260;2022-08-01T08:02:43;10.88;;;3.22;;
49051;SDS011;34866;48.670;18.260;2022-08-01T08:05:17;5.05;;;2.65;;
49051;SDS011;34866;48.670;18.260;2022-08-01T08:07:58;4.43;;;2.75;;
49051;SDS011;34866;48.670;18.260;2022-08-01T08:14:27;5.50;;;2.72;;
49051;SDS011;34866;48.670;18.260;2022-08-01T08:17:25;10.88;;;4.22;;
49051;SDS011;34866;48.670;18.260;2022-08-01T08:23:14;8.68;;;3.15;;
49051;SDS011;34866;48.670;18.260;2022-08-01T08:25:59;5.57;;;2.92;;
49051;SDS011;34866;48.670;18.260;2022-08-01T08:29:00;8.75;;;2.90;;
49051;SDS011;34866;48.670;18.260;2022-08-01T08:31:49;5.22;;;3.10;;
49051;SDS011;34866;48.670;18.260;2022-08-01T08:35:12;6.22;;;2.50;;
49051;SDS011;34866;48.670;18.260;2022-08-01T08:37:51;6.65;;;2.25;;
49051;SDS011;34866;48.670;18.260;2022-08-01T08:40:38;4.43;;;2.28;;
49051;SDS011;34866;48.670;18.260;2022-08-01T08:46:48;5.60;;;2.33;;
49051;SDS011;34866;48.670;18.260;2022-08-01T08:49:21;7.38;;;2.28;;
49051;SDS011;34866;48.670;18.260;2022-08-01T08:51:53;5.00;;;2.38;;
49051;SDS011;34866;48.670;18.260;2022-08-01T08:57:25;12.30;;;2.33;;
49051;SDS011;34866;48.670;18.260;2022-08-01T09:00:21;4.88;;;2.28;;
49051;SDS011;34866;48.670;18.260;2022-08-01T09:03:01;4.00;;;2.25;;
49051;SDS011;34866;48.670;18.260;2022-08-01T09:05:32;7.35;;;2.30;;
49051;SDS011;34866;48.670;18.260;2022-08-01T09:11:20;5.05;;;2.47;;
49051;SDS011;34866;48.670;18.260;2022-08-01T09:17:07;5.70;;;3.08;;
49051;SDS011;34866;48.670;18.260;2022-08-01T09:23:06;4.78;;;2.53;;
49051;SDS011;34866;48.670;18.260;2022-08-01T09:26:31;3.75;;;2.20;;
49051;SDS011;34866;48.670;18.260;2022-08-01T09:29:08;5.40;;;2.70;;
49051;SDS011;34866;48.670;18.260;2022-08-01T09:32:33;6.82;;;2.30;;
49051;SDS011;34866;48.670;18.260;2022-08-01T09:35:21;6.90;;;2.53;;
49051;SDS011;34866;48.670;18.260;2022-08-01T09:41:08;8.23;;;2.47;;
49051;SDS011;34866;48.670;18.260;2022-08-01T09:47:07;4.85;;;2.40;;
49051;SDS011;34866;48.670;18.260;2022-08-01T09:49:38;7.53;;;2.75;;
49051;SDS011;34866;48.670;18.260;2022-08-01T09:58:20;5.38;;;2.78;;
49051;SDS011;34866;48.670;18.260;2022-08-01T10:01:28;4.57;;;2.72;;
49051;SDS011;34866;48.670;18.260;2022-08-01T10:04:22;3.85;;;2.30;;
49051;SDS011;34866;48.670;18.260;2022-08-01T10:10:14;5.68;;;3.58;;
49051;SDS011;34866;48.670;18.260;2022-08-01T10:13:29;4.65;;;2.90;;
49051;SDS011;34866;48.670;18.260;2022-08-01T10:16:38;4.03;;;2.53;;
49051;SDS011;34866;48.670;18.260;2022-08-01T10:19:16;8.30;;;2.78;;
49051;SDS011;34866;48.670;18.260;2022-08-01T10:36:16;4.97;;;2.75;;
49051;SDS011;34866;48.670;18.260;2022-08-01T10:39:43;5.28;;;3.00;;
49051;SDS011;34866;48.670;18.260;2022-08-01T10:46:04;6.07;;;2.75;;
49051;SDS011;34866;48.670;18.260;2022-08-01T11:14:06;7.80;;;2.80;;
49051;SDS011;34866;48.670;18.260;2022-08-01T11:20:15;5.43;;;3.30;;
49051;SDS011;34866;48.670;18.260;2022-08-01T11:44:10;5.88;;;2.65;;
49051;SDS011;34866;48.670;18.260;2022-08-01T11:59:23;4.82;;;2.47;;
49051;SDS011;34866;48.670;18.260;2022-08-01T12:10:49;3.55;;;2.17;;
49051;SDS011;34866;48.670;18.260;2022-08-01T12:20:06;5.97;;;2.03;;
49051;SDS011;34866;48.670;18.260;2022-08-01T12:22:54;5.25;;;2.00;;
49051;SDS011;34866;48.670;18.260;2022-08-01T12:25:58;8.75;;;2.20;;
49051;SDS011;34866;48.670;18.260;2022-08-01T12:28:40;4.15;;;1.85;;
49051;SDS011;34866;48.670;18.260;2022-08-01T12:31:06;5.35;;;2.40;;
49051;SDS011;34866;48.670;18.260;2022-08-01T12:36:57;3.95;;;2.05;;
49051;SDS011;34866;48.670;18.260;2022-08-01T12:43:20;6.30;;;2.60;;
49051;SDS011;34866;48.670;18.260;2022-08-01T12:45:58;6.25;;;2.28;;
49051;SDS011;34866;48.670;18.260;2022-08-01T12:48:51;4.35;;;2.20;;
49051;SDS011;34866;48.670;18.260;2022-08-01T12:59:44;7.28;;;2.40;;
49051;SDS011;34866;48.670;18.260;2022-08-01T13:02:45;5.18;;;2.60;;
49051;SDS011;34866;48.670;18.260;2022-08-01T13:17:55;6.57;;;2.00;;
49051;SDS011;34866;48.670;18.260;2022-08-01T13:30:28;3.40;;;1.95;;
49051;SDS011;34866;48.670;18.260;2022-08-01T13:36:25;7.30;;;2.40;;
49051;SDS011;34866;48.670;18.260;2022-08-01T13:39:36;4.03;;;1.88;;
49051;SDS011;34866;48.670;18.260;2022-08-01T14:11:06;5.68;;;2.20;;
49051;SDS011;34866;48.670;18.260;2022-08-01T14:13:32;9.15;;;2.28;;
49051;SDS011;34866;48.670;18.260;2022-08-01T14:15:58;3.88;;;2.20;;
49051;SDS011;34866;48.670;18.260;2022-08-01T14:18:43;3.55;;;1.75;;
49051;SDS011;34866;48.670;18.260;2022-08-01T14:24:06;6.63;;;2.28;;
49051;SDS011;34866;48.670;18.260;2022-08-01T14:26:34;3.80;;;1.90;;
49051;SDS011;34866;48.670;18.260;2022-08-01T14:32:03;4.95;;;2.17;;
49051;SDS011;34866;48.670;18.260;2022-08-01T14:38:08;3.38;;;1.90;;
49051;SDS011;34866;48.670;18.260;2022-08-01T14:47:22;4.95;;;2.40;;
49051;SDS011;34866;48.670;18.260;2022-08-01T14:49:49;7.18;;;2.45;;
49051;SDS011;34866;48.670;18.260;2022-08-01T14:52:15;3.28;;;1.98;;
49051;SDS011;34866;48.670;18.260;2022-08-01T14:54:41;8.07;;;2.40;;
49051;SDS011;34866;48.670;18.260;2022-08-01T14:57:12;5.68;;;2.20;;
49051;SDS011;34866;48.670;18.260;2022-08-01T14:59:41;4.15;;;2.47;;
49051;SDS011;34866;48.670;18.260;2022-08-01T15:02:07;3.47;;;2.08;;
49051;SDS011;34866;48.670;18.260;2022-08-01T15:04:35;4.90;;;2.53;;
49051;SDS011;34866;48.670;18.260;2022-08-01T15:07:07;4.43;;;2.28;;
49051;SDS011;34866;48.670;18.260;2022-08-01T15:09:37;4.03;;;2.08;;
49051;SDS011;34866;48.670;18.260;2022-08-01T15:12:03;3.67;;;2.20;;
49051;SDS011;34866;48.670;18.260;2022-08-01T15:14:29;3.60;;;2.03;;
49051;SDS011;34866;48.670;18.260;2022-08-01T15:17:23;7.68;;;2.30;;
49051;SDS011;34866;48.670;18.260;2022-08-01T15:19:56;4.15;;;2.13;;
49051;SDS011;34866;48.670;18.260;2022-08-01T15:22:41;4.60;;;2.30;;
49051;SDS011;34866;48.670;18.260;2022-08-01T15:25:07;11.57;;;2.40;;
49051;SDS011;34866;48.670;18.260;2022-08-01T15:35:38;3.92;;;1.38;;
49051;SDS011;34866;48.670;18.260;2022-08-01T15:38:29;10.02;;;1.60;;
49051;SDS011;34866;48.670;18.260;2022-08-01T15:41:20;8.68;;;1.83;;
49051;SDS011;34866;48.670;18.260;2022-08-01T15:55:37;5.05;;;1.60;;
49051;SDS011;34866;48.670;18.260;2022-08-01T15:58:03;4.93;;;1.80;;
49051;SDS011;34866;48.670;18.260;2022-08-01T16:15:03;4.78;;;2.10;;
49051;SDS011;34866;48.670;18.260;2022-08-01T16:24:21;3.47;;;1.80;;
49051;SDS011;34866;48.670;18.260;2022-08-01T16:27:02;3.75;;;2.05;;
49051;SDS011;34866;48.670;18.260;2022-08-01T16:33:28;3.80;;;2.00;;
49051;SDS011;34866;48.670;18.260;2022-08-01T16:36:33;4.88;;;2.30;;
49051;SDS011;34866;48.670;18.260;2022-08-01T16:56:31;2.97;;;1.60;;
49051;SDS011;34866;48.670;18.260;2022-08-01T17:00:11;4.03;;;1.80;;
49051;SDS011;34866;48.670;18.260;2022-08-01T17:07:30;3.38;;;1.90;;
49051;SDS011;34866;48.670;18.260;2022-08-01T17:11:00;4.03;;;2.00;;
49051;SDS011;34866;48.670;18.260;2022-08-01T17:17:33;4.10;;;2.45;;
49051;SDS011;34866;48.670;18.260;2022-08-01T17:42:03;6.28;;;2.42;;
49051;SDS011;34866;48.670;18.260;2022-08-01T18:03:44;8.32;;;2.50;;
49051;SDS011;34866;48.670;18.260;2022-08-01T18:10:24;4.80;;;2.95;;
49051;SDS011;34866;48.670;18.260;2022-08-01T18:12:57;4.93;;;2.60;;
49051;SDS011;34866;48.670;18.260;2022-08-01T18:23:16;5.72;;;2.60;;
49051;SDS011;34866;48.670;18.260;2022-08-01T18:26:20;6.82;;;3.25;;
49051;SDS011;34866;48.670;18.260;2022-08-01T18:42:45;5.95;;;2.70;;
49051;SDS011;34866;48.670;18.260;2022-08-01T18:45:59;5.65;;;2.80;;
49051;SDS011;34866;48.670;18.260;2022-08-01T18:48:34;8.05;;;3.13;;
49051;SDS011;34866;48.670;18.260;2022-08-01T18:51:00;6.63;;;2.72;;
49051;SDS011;34866;48.670;18.260;2022-08-01T18:54:11;7.85;;;3.38;;
49051;SDS011;34866;48.670;18.260;2022-08-01T18:56:46;8.98;;;3.08;;
49051;SDS011;34866;48.670;18.260;2022-08-01T18:59:17;5.40;;;2.80;;
49051;SDS011;34866;48.670;18.260;2022-08-01T19:02:07;8.18;;;3.38;;
49051;SDS011;34866;48.670;18.260;2022-08-01T19:08:26;6.47;;;2.95;;
49051;SDS011;34866;48.670;18.260;2022-08-01T19:11:54;6.55;;;2.95;;
49051;SDS011;34866;48.670;18.260;2022-08-01T19:17:47;8.82;;;3.22;;
49051;SDS011;34866;48.670;18.260;2022-08-01T19:23:41;14.07;;;5.28;;
49051;SDS011;34866;48.670;18.260;2022-08-01T19:29:54;9.48;;;4.75;;
49051;SDS011;34866;48.670;18.260;2022-08-01T19:32:41;8.40;;;5.05;;
49051;SDS011;34866;48.670;18.260;2022-08-01T19:35:36;9.73;;;5.50;;
49051;SDS011;34866;48.670;18.260;2022-08-01T19:38:03;23.08;;;6.10;;
49051;SDS011;34866;48.670;18.260;2022-08-01T19:40:52;9.60;;;4.80;;
49051;SDS011;34866;48.670;18.260;2022-08-01T19:43:40;14.57;;;5.50;;
49051;SDS011;34866;48.670;18.260;2022-08-01T19:46:31;8.90;;;5.30;;
49051;SDS011;34866;48.670;18.260;2022-08-01T19:52:05;10.20;;;5.78;;
49051;SDS011;34866;48.670;18.260;2022-08-01T19:54:40;10.60;;;5.47;;
49051;SDS011;34866;48.670;18.260;2022-08-01T19:57:29;12.15;;;5.82;;
49051;SDS011;34866;48.670;18.260;2022-08-01T20:00:23;9.55;;;5.70;;
49051;SDS011;34866;48.670;18.260;2022-08-01T20:03:07;16.88;;;7.20;;
49051;SDS011;34866;48.670;18.260;2022-08-01T20:05:44;13.70;;;5.57;;
49051;SDS011;34866;48.670;18.260;2022-08-01T20:08:19;13.93;;;6.30;;
49051;SDS011;34866;48.670;18.260;2022-08-01T20:13:43;9.73;;;5.25;;
49051;SDS011;34866;48.670;18.260;2022-08-01T20:16:15;14.60;;;5.53;;
49051;SDS011;34866;48.670;18.260;2022-08-01T20:18:42;7.95;;;4.90;;
49051;SDS011;34866;48.670;18.260;2022-08-01T20:21:43;8.18;;;5.20;;
49051;SDS011;34866;48.670;18.260;2022-08-01T20:24:12;11.93;;;6.60;;
49051;SDS011;34866;48.670;18.260;2022-08-01T20:27:02;10.63;;;5.90;;
49051;SDS011;34866;48.670;18.260;2022-08-01T20:29:34;9.27;;;4.93;;
49051;SDS011;34866;48.670;18.260;2022-08-01T20:32:52;14.32;;;5.03;;
49051;SDS011;34866;48.670;18.260;2022-08-01T20:35:40;10.68;;;5.88;;
49051;SDS011;34866;48.670;18.260;2022-08-01T20:38:09;7.65;;;4.47;;
49051;SDS011;34866;48.670;18.260;2022-08-01T20:40:41;7.88;;;5.15;;
49051;SDS011;34866;48.670;18.260;2022-08-01T20:43:36;8.50;;;4.53;;
49051;SDS011;34866;48.670;18.260;2022-08-01T20:46:08;10.30;;;4.75;;
49051;SDS011;34866;48.670;18.260;2022-08-01T20:48:49;7.55;;;4.78;;
49051;SDS011;34866;48.670;18.260;2022-08-01T20:51:39;9.20;;;4.38;;
49051;SDS011;34866;48.670;18.260;2022-08-01T20:54:08;8.85;;;5.95;;
49051;SDS011;34866;48.670;18.260;2022-08-01T21:05:46;10.98;;;4.75;;
49051;SDS011;34866;48.670;18.260;2022-08-01T21:09:03;10.25;;;4.68;;
49051;SDS011;34866;48.670;18.260;2022-08-01T21:11:43;10.75;;;4.57;;
49051;SDS011;34866;48.670;18.260;2022-08-01T21:14:34;7.72;;;4.20;;
49051;SDS011;34866;48.670;18.260;2022-08-01T21:20:43;5.65;;;3.45;;
49051;SDS011;34866;48.670;18.260;2022-08-01T21:23:33;9.30;;;4.50;;
49051;SDS011;34866;48.670;18.260;2022-08-01T21:26:13;6.10;;;4.45;;
49051;SDS011;34866;48.670;18.260;2022-08-01T21:29:05;10.77;;;3.88;;
49051;SDS011;34866;48.670;18.260;2022-08-01T21:31:57;5.97;;;3.88;;
49051;SDS011;34866;48.670;18.260;2022-08-01T21:34:46;12.35;;;4.43;;
49051;SDS011;34866;48.670;18.260;2022-08-01T21:37:17;7.60;;;4.15;;
49051;SDS011;34866;48.670;18.260;2022-08-01T21:40:38;6.50;;;4.20;;
49051;SDS011;34866;48.670;18.260;2022-08-01T21:46:18;7.05;;;4.10;;
49051;SDS011;34866;48.670;18.260;2022-08-01T21:49:04;8.95;;;4.38;;
49051;SDS011;34866;48.670;18.260;2022-08-01T21:51:56;6.15;;;4.10;;
49051;SDS011;34866;48.670;18.260;2022-08-01T21:55:08;6.47;;;3.90;;
49051;SDS011;34866;48.670;18.260;2022-08-01T22:01:19;7.88;;;4.35;;
49051;SDS011;34866;48.670;18.260;2022-08-01T22:04:10;7.63;;;4.20;;
49051;SDS011;34866;48.670;18.260;2022-08-01T22:07:23;7.35;;;5.07;;
49051;SDS011;34866;48.670;18.260;2022-08-01T22:09:51;8.02;;;4.28;;
49051;SDS011;34866;48.670;18.260;2022-08-01T22:12:42;12.63;;;4.20;;
49051;SDS011;34866;48.670;18.260;2022-08-01T22:15:13;8.05;;;4.05;;
49051;SDS011;34866;48.670;18.260;2022-08-01T22:21:12;7.05;;;4.50;;
49051;SDS011;34866;48.670;18.260;2022-08-01T22:24:04;11.13;;;4.40;;
49051;SDS011;34866;48.670;18.260;2022-08-01T22:30:23;9.90;;;4.75;;
49051;SDS011;34866;48.670;18.260;2022-08-01T22:32:52;8.60;;;4.43;;
49051;SDS011;34866;48.670;18.260;2022-08-01T22:35:39;7.57;;;4.15;;
49051;SDS011;34866;48.670;18.260;2022-08-01T22:41:20;8.07;;;4.60;;
49051;SDS011;34866;48.670;18.260;2022-08-01T22:44:11;14.40;;;4.65;;
49051;SDS011;34866;48.670;18.260;2022-08-01T22:46:50;8.57;;;4.82;;
49051;SDS011;34866;48.670;18.260;2022-08-01T22:49:59;6.57;;;4.40;;
49051;SDS011;34866;48.670;18.260;2022-08-01T22:52:48;8.90;;;5.20;;
49051;SDS011;34866;48.670;18.260;2022-08-01T22:56:16;7.78;;;4.90;;
49051;SDS011;34866;48.670;18.260;2022-08-01T22:59:19;9.88;;;5.10;;
49051;SDS011;34866;48.670;18.260;2022-08-01T23:02:30;10.13;;;4.75;;
49051;SDS011;34866;48.670;18.260;2022-08-01T23:07:56;9.73;;;4.97;;
49051;SDS011;34866;48.670;18.260;2022-08-01T23:10:47;7.05;;;4.68;;
49051;SDS011;34866;48.670;18.260;2022-08-01T23:13:23;7.75;;;5.10;;
49051;SDS011;34866;48.670;18.260;2022-08-01T23:18:38;11.70;;;6.15;;
49051;SDS011;34866;48.670;18.260;2022-08-01T23:21:08;7.70;;;5.25;;
49051;SDS011;34866;48.670;18.260;2022-08-01T23:23:36;9.80;;;5.28;;
49051;SDS011;34866;48.670;18.260;2022-08-01T23:26:24;8.60;;;4.90;;
49051;SDS011;34866;48.670;18.260;2022-08-01T23:28:58;9.27;;;4.88;;
49051;SDS011;34866;48.670;18.260;2022-08-01T23:31:29;9.50;;;4.53;;
49051;SDS011;34866;48.670;18.260;2022-08-01T23:34:16;14.25;;;6.05;;
49051;SDS011;34866;48.670;18.260;2022-08-01T23:36:41;12.60;;;4.93;;
49051;SDS011;34866;48.670;18.260;2022-08-01T23:39:16;8.65;;;5.72;;
49051;SDS011;34866;48.670;18.260;2022-08-01T23:42:05;8.77;;;5.13;;
49051;SDS011;34866;48.670;18.260;2022-08-01T23:45:03;7.88;;;5.28;;
49051;SDS011;34866;48.670;18.260;2022-08-01T23:50:50;8.50;;;5.28;;
49051;SDS011;34866;48.670;18.260;2022-08-01T23:53:19;13.82;;;5.70;;
